sensor_id;sensor_type;location;lat;lon;timestamp;temperature;humidity
36586;DHT22;22591;48.314;11.562;2023-03-08T00:00:13;3.40;94.10
36586;DHT22;22591;48.314;11.562;2023-03-08T00:02:39;3.50;94.30
36586;DHT22;22591;48.314;11.562;2023-03-08T00:05:05;3.50;94.30
36586;DHT22;22591;48.314;11.562;2023-03-08T00:07:31;3.50;94.40
36586;DHT22;22591;48.314;11.562;2023-03-08T00:09:57;3.50;94.50
36586;DHT22;22591;48.314;11.562;2023-03-08T00:12:22;3.40;94.70
36586;DHT22;22591;48.314;11.562;2023-03-08T00:14:49;3.40;94.80
36586;DHT22;22591;48.314;11.562;2023-03-08T00:17:15;3.40;95.00
36586;DHT22;22591;48.314;11.562;2023-03-08T00:19:41;3.30;95.30
36586;DHT22;22591;48.314;11.562;2023-03-08T00:22:07;3.30;95.50
36586;DHT22;22591;48.314;11.562;2023-03-08T00:24:32;3.20;95.70
36586;DHT22;22591;48.314;11.562;2023-03-08T00:26:58;3.20;95.90
36586;DHT22;22591;48.314;11.562;2023-03-08T00:29:23;3.20;96.00
36586;DHT22;22591;48.314;11.562;2023-03-08T00:31:49;3.10;96.10
36586;DHT22;22591;48.314;11.562;2023-03-08T00:34:15;3.20;96.30
36586;DHT22;22591;48.314;11.562;2023-03-08T00:36:41;3.20;96.20
36586;DHT22;22591;48.314;11.562;2023-03-08T00:39:07;3.10;96.30
36586;DHT22;22591;48.314;11.562;2023-03-08T00:41:33;3.20;96.30
36586;DHT22;22591;48.314;11.562;2023-03-08T00:43:58;3.20;96.40
36586;DHT22;22591;48.314;11.562;2023-03-08T00:46:24;3.10;96.40
36586;DHT22;22591;48.314;11.562;2023-03-08T00:48:50;3.10;96.50
36586;DHT22;22591;48.314;11.562;2023-03-08T00:51:17;3.10;96.60
36586;DHT22;22591;48.314;11.562;2023-03-08T00:53:43;3.10;96.70
36586;DHT22;22591;48.314;11.562;2023-03-08T00:56:09;3.10;96.80
36586;DHT22;22591;48.314;11.562;2023-03-08T00:58:35;3.00;97.00
36586;DHT22;22591;48.314;11.562;2023-03-08T01:01:01;2.90;97.00
36586;DHT22;22591;48.314;11.562;2023-03-08T01:03:27;2.90;97.20
36586;DHT22;22591;48.314;11.562;2023-03-08T01:05:54;2.90;96.80
36586;DHT22;22591;48.314;11.562;2023-03-08T01:08:22;2.90;96.50
36586;DHT22;22591;48.314;11.562;2023-03-08T01:10:56;2.90;96.30
36586;DHT22;22591;48.314;11.562;2023-03-08T01:13:23;3.00;96.20
36586;DHT22;22591;48.314;11.562;2023-03-08T01:15:49;2.90;96.10
36586;DHT22;22591;48.314;11.562;2023-03-08T01:18:14;2.90;96.00
36586;DHT22;22591;48.314;11.562;2023-03-08T01:20:40;2.90;96.00
36586;DHT22;22591;48.314;11.562;2023-03-08T01:23:06;2.90;96.00
36586;DHT22;22591;48.314;11.562;2023-03-08T01:25:31;3.10;95.80
36586;DHT22;22591;48.314;11.562;2023-03-08T01:27:57;2.90;95.80
36586;DHT22;22591;48.314;11.562;2023-03-08T01:30:23;2.80;96.00
36586;DHT22;22591;48.314;11.562;2023-03-08T01:32:48;2.90;96.00
36586;DHT22;22591;48.314;11.562;2023-03-08T01:35:14;2.80;96.10
36586;DHT22;22591;48.314;11.562;2023-03-08T01:37:39;2.70;96.20
36586;DHT22;22591;48.314;11.562;2023-03-08T01:40:06;2.60;96.50
36586;DHT22;22591;48.314;11.562;2023-03-08T01:42:32;2.40;96.80
36586;DHT22;22591;48.314;11.562;2023-03-08T01:45:00;2.40;97.00
36586;DHT22;22591;48.314;11.562;2023-03-08T01:47:29;2.40;97.00
36586;DHT22;22591;48.314;11.562;2023-03-08T01:49:58;2.30;97.10
36586;DHT22;22591;48.314;11.562;2023-03-08T01:52:38;2.30;97.20
36586;DHT22;22591;48.314;11.562;2023-03-08T01:55:09;2.30;97.10
36586;DHT22;22591;48.314;11.562;2023-03-08T01:57:47;2.30;97.20
36586;DHT22;22591;48.314;11.562;2023-03-08T02:00:23;2.30;97.30
36586;DHT22;22591;48.314;11.562;2023-03-08T02:02:57;2.20;97.40
36586;DHT22;22591;48.314;11.562;2023-03-08T02:05:24;2.20;97.50
36586;DHT22;22591;48.314;11.562;2023-03-08T02:07:50;2.10;97.70
36586;DHT22;22591;48.314;11.562;2023-03-08T02:10:16;2.10;97.60
36586;DHT22;22591;48.314;11.562;2023-03-08T02:12:42;2.10;97.60
36586;DHT22;22591;48.314;11.562;2023-03-08T02:15:10;2.20;97.60
36586;DHT22;22591;48.314;11.562;2023-03-08T02:17:37;2.10;97.70
36586;DHT22;22591;48.314;11.562;2023-03-08T02:20:34;2.00;97.80
36586;DHT22;22591;48.314;11.562;2023-03-08T02:23:26;1.90;98.00
36586;DHT22;22591;48.314;11.562;2023-03-08T02:28:19;1.90;98.00
36586;DHT22;22591;48.314;11.562;2023-03-08T02:30:45;1.80;98.10
36586;DHT22;22591;48.314;11.562;2023-03-08T02:33:11;1.80;98.20
36586;DHT22;22591;48.314;11.562;2023-03-08T02:35:36;1.90;98.20
36586;DHT22;22591;48.314;11.562;2023-03-08T02:38:03;1.90;98.10
36586;DHT22;22591;48.314;11.562;2023-03-08T02:40:28;1.90;98.10
36586;DHT22;22591;48.314;11.562;2023-03-08T02:42:54;2.00;98.00
36586;DHT22;22591;48.314;11.562;2023-03-08T02:45:21;2.00;98.00
36586;DHT22;22591;48.314;11.562;2023-03-08T02:47:47;1.90;98.00
36586;DHT22;22591;48.314;11.562;2023-03-08T02:50:12;1.80;98.20
36586;DHT22;22591;48.314;11.562;2023-03-08T02:52:38;1.70;98.40
36586;DHT22;22591;48.314;11.562;2023-03-08T02:55:04;1.60;98.40
36586;DHT22;22591;48.314;11.562;2023-03-08T02:57:29;1.60;98.70
36586;DHT22;22591;48.314;11.562;2023-03-08T02:59:55;1.60;98.80
36586;DHT22;22591;48.314;11.562;2023-03-08T03:02:20;1.60;98.80
36586;DHT22;22591;48.314;11.562;2023-03-08T03:04:46;1.60;98.80
36586;DHT22;22591;48.314;11.562;2023-03-08T03:07:11;1.50;98.80
36586;DHT22;22591;48.314;11.562;2023-03-08T03:09:37;1.60;98.70
36586;DHT22;22591;48.314;11.562;2023-03-08T03:12:03;1.60;98.80
36586;DHT22;22591;48.314;11.562;2023-03-08T03:14:28;1.50;99.00
36586;DHT22;22591;48.314;11.562;2023-03-08T03:16:54;1.40;99.00
36586;DHT22;22591;48.314;11.562;2023-03-08T03:19:19;1.50;99.00
36586;DHT22;22591;48.314;11.562;2023-03-08T03:21:45;1.40;99.30
36586;DHT22;22591;48.314;11.562;2023-03-08T03:24:12;1.40;99.30
36586;DHT22;22591;48.314;11.562;2023-03-08T03:26:37;1.30;99.40
36586;DHT22;22591;48.314;11.562;2023-03-08T03:29:03;1.30;99.60
36586;DHT22;22591;48.314;11.562;2023-03-08T03:31:28;1.30;99.70
36586;DHT22;22591;48.314;11.562;2023-03-08T03:33:55;1.20;99.70
36586;DHT22;22591;48.314;11.562;2023-03-08T03:36:21;1.20;99.90
36586;DHT22;22591;48.314;11.562;2023-03-08T03:38:47;1.10;99.90
36586;DHT22;22591;48.314;11.562;2023-03-08T03:41:16;1.10;99.90
36586;DHT22;22591;48.314;11.562;2023-03-08T03:43:42;1.10;99.90
36586;DHT22;22591;48.314;11.562;2023-03-08T03:46:10;1.00;99.90
36586;DHT22;22591;48.314;11.562;2023-03-08T03:48:36;1.10;99.90
36586;DHT22;22591;48.314;11.562;2023-03-08T03:51:08;1.10;99.90
36586;DHT22;22591;48.314;11.562;2023-03-08T03:53:34;1.00;99.90
36586;DHT22;22591;48.314;11.562;2023-03-08T03:56:10;1.00;99.90
36586;DHT22;22591;48.314;11.562;2023-03-08T03:58:36;0.90;99.90
36586;DHT22;22591;48.314;11.562;2023-03-08T04:01:17;0.90;99.90
36586;DHT22;22591;48.314;11.562;2023-03-08T04:03:45;0.90;99.90
36586;DHT22;22591;48.314;11.562;2023-03-08T04:06:16;0.80;99.90
36586;DHT22;22591;48.314;11.562;2023-03-08T04:08:42;0.80;99.90
36586;DHT22;22591;48.314;11.562;2023-03-08T04:11:09;0.70;99.90
36586;DHT22;22591;48.314;11.562;2023-03-08T04:13:35;0.70;99.90
36586;DHT22;22591;48.314;11.562;2023-03-08T04:16:25;0.70;99.90
36586;DHT22;22591;48.314;11.562;2023-03-08T04:18:53;0.70;99.90
36586;DHT22;22591;48.314;11.562;2023-03-08T04:21:19;0.60;99.90
36586;DHT22;22591;48.314;11.562;2023-03-08T04:23:45;0.50;99.90
36586;DHT22;22591;48.314;11.562;2023-03-08T04:26:11;0.50;99.90
36586;DHT22;22591;48.314;11.562;2023-03-08T04:28:38;0.50;99.90
36586;DHT22;22591;48.314;11.562;2023-03-08T04:33:36;0.50;99.90
36586;DHT22;22591;48.314;11.562;2023-03-08T04:36:02;0.60;99.90
36586;DHT22;22591;48.314;11.562;2023-03-08T04:38:29;0.60;99.90
36586;DHT22;22591;48.314;11.562;2023-03-08T04:40:54;0.60;99.90
36586;DHT22;22591;48.314;11.562;2023-03-08T04:43:29;0.70;99.90
36586;DHT22;22591;48.314;11.562;2023-03-08T04:45:54;0.80;99.90
36586;DHT22;22591;48.314;11.562;2023-03-08T04:48:20;0.80;99.90
36586;DHT22;22591;48.314;11.562;2023-03-08T04:50:56;0.90;99.90
36586;DHT22;22591;48.314;11.562;2023-03-08T04:53:23;1.00;99.90
36586;DHT22;22591;48.314;11.562;2023-03-08T04:55:49;1.20;99.90
36586;DHT22;22591;48.314;11.562;2023-03-08T04:58:15;1.20;99.90
36586;DHT22;22591;48.314;11.562;2023-03-08T05:00:41;1.20;99.90
36586;DHT22;22591;48.314;11.562;2023-03-08T05:03:06;1.20;99.90
36586;DHT22;22591;48.314;11.562;2023-03-08T05:05:32;1.30;99.90
36586;DHT22;22591;48.314;11.562;2023-03-08T05:07:58;1.30;99.90
36586;DHT22;22591;48.314;11.562;2023-03-08T05:10:28;1.30;99.90
36586;DHT22;22591;48.314;11.562;2023-03-08T05:12:54;1.40;99.90
36586;DHT22;22591;48.314;11.562;2023-03-08T05:15:20;1.40;99.90
36586;DHT22;22591;48.314;11.562;2023-03-08T05:17:48;1.40;99.90
36586;DHT22;22591;48.314;11.562;2023-03-08T05:20:13;1.40;99.90
36586;DHT22;22591;48.314;11.562;2023-03-08T05:22:39;1.40;99.90
36586;DHT22;22591;48.314;11.562;2023-03-08T05:25:05;1.40;99.90
36586;DHT22;22591;48.314;11.562;2023-03-08T05:27:35;1.40;99.90
36586;DHT22;22591;48.314;11.562;2023-03-08T05:30:00;1.30;99.90
36586;DHT22;22591;48.314;11.562;2023-03-08T05:32:26;1.30;99.90
36586;DHT22;22591;48.314;11.562;2023-03-08T05:34:52;1.30;99.90
36586;DHT22;22591;48.314;11.562;2023-03-08T05:37:17;1.30;99.90
36586;DHT22;22591;48.314;11.562;2023-03-08T05:39:43;1.40;99.90
36586;DHT22;22591;48.314;11.562;2023-03-08T05:42:09;1.50;99.90
36586;DHT22;22591;48.314;11.562;2023-03-08T05:44:36;1.50;99.90
36586;DHT22;22591;48.314;11.562;2023-03-08T05:47:02;1.60;99.90
36586;DHT22;22591;48.314;11.562;2023-03-08T05:49:28;1.70;99.90
36586;DHT22;22591;48.314;11.562;2023-03-08T05:51:53;1.70;99.90
36586;DHT22;22591;48.314;11.562;2023-03-08T05:54:19;1.80;99.90
36586;DHT22;22591;48.314;11.562;2023-03-08T05:56:45;1.80;99.90
36586;DHT22;22591;48.314;11.562;2023-03-08T05:59:10;1.90;99.90
36586;DHT22;22591;48.314;11.562;2023-03-08T06:01:36;2.00;99.90
36586;DHT22;22591;48.314;11.562;2023-03-08T06:04:01;2.00;99.90
36586;DHT22;22591;48.314;11.562;2023-03-08T06:06:27;2.10;99.90
36586;DHT22;22591;48.314;11.562;2023-03-08T06:08:53;2.10;99.90
36586;DHT22;22591;48.314;11.562;2023-03-08T06:11:20;2.20;99.90
36586;DHT22;22591;48.314;11.562;2023-03-08T06:13:46;2.30;99.90
36586;DHT22;22591;48.314;11.562;2023-03-08T06:16:12;2.40;99.90
36586;DHT22;22591;48.314;11.562;2023-03-08T06:18:39;2.40;99.90
36586;DHT22;22591;48.314;11.562;2023-03-08T06:21:09;2.40;99.90
36586;DHT22;22591;48.314;11.562;2023-03-08T06:23:35;2.50;99.90
36586;DHT22;22591;48.314;11.562;2023-03-08T06:26:02;2.50;99.90
36586;DHT22;22591;48.314;11.562;2023-03-08T06:28:28;2.60;99.90
36586;DHT22;22591;48.314;11.562;2023-03-08T06:30:54;2.70;99.90
36586;DHT22;22591;48.314;11.562;2023-03-08T06:33:26;2.90;99.90
36586;DHT22;22591;48.314;11.562;2023-03-08T06:36:03;3.00;99.90
36586;DHT22;22591;48.314;11.562;2023-03-08T06:38:30;3.10;99.90
36586;DHT22;22591;48.314;11.562;2023-03-08T06:40:56;3.20;99.90
36586;DHT22;22591;48.314;11.562;2023-03-08T06:43:22;3.30;99.80
36586;DHT22;22591;48.314;11.562;2023-03-08T06:45:48;3.40;99.70
36586;DHT22;22591;48.314;11.562;2023-03-08T06:48:14;3.40;99.60
36586;DHT22;22591;48.314;11.562;2023-03-08T06:50:39;3.40;99.50
36586;DHT22;22591;48.314;11.562;2023-03-08T06:53:05;3.40;99.50
36586;DHT22;22591;48.314;11.562;2023-03-08T06:55:33;3.30;99.60
36586;DHT22;22591;48.314;11.562;2023-03-08T06:57:58;3.30;99.80
36586;DHT22;22591;48.314;11.562;2023-03-08T07:00:24;3.40;99.80
36586;DHT22;22591;48.314;11.562;2023-03-08T07:02:49;3.40;99.80
36586;DHT22;22591;48.314;11.562;2023-03-08T07:05:15;3.40;99.70
36586;DHT22;22591;48.314;11.562;2023-03-08T07:07:41;3.50;99.90
36586;DHT22;22591;48.314;11.562;2023-03-08T07:10:08;3.50;99.80
36586;DHT22;22591;48.314;11.562;2023-03-08T07:12:36;3.60;99.80
36586;DHT22;22591;48.314;11.562;2023-03-08T07:15:06;3.70;99.60
36586;DHT22;22591;48.314;11.562;2023-03-08T07:17:31;3.80;99.70
36586;DHT22;22591;48.314;11.562;2023-03-08T07:19:59;3.80;99.80
36586;DHT22;22591;48.314;11.562;2023-03-08T07:22:24;3.90;99.80
36586;DHT22;22591;48.314;11.562;2023-03-08T07:24:50;4.00;99.70
36586;DHT22;22591;48.314;11.562;2023-03-08T07:27:15;4.10;99.50
36586;DHT22;22591;48.314;11.562;2023-03-08T07:29:41;4.20;99.40
36586;DHT22;22591;48.314;11.562;2023-03-08T07:32:07;4.30;99.30
36586;DHT22;22591;48.314;11.562;2023-03-08T07:34:32;4.40;99.20
36586;DHT22;22591;48.314;11.562;2023-03-08T07:36:58;4.50;99.00
36586;DHT22;22591;48.314;11.562;2023-03-08T07:39:23;4.50;99.00
36586;DHT22;22591;48.314;11.562;2023-03-08T07:41:49;4.60;99.10
36586;DHT22;22591;48.314;11.562;2023-03-08T07:44:14;4.70;98.90
36586;DHT22;22591;48.314;11.562;2023-03-08T07:46:40;4.90;98.90
36586;DHT22;22591;48.314;11.562;2023-03-08T07:49:06;5.00;98.70
36586;DHT22;22591;48.314;11.562;2023-03-08T07:51:35;5.00;98.60
36586;DHT22;22591;48.314;11.562;2023-03-08T07:54:01;5.10;98.60
36586;DHT22;22591;48.314;11.562;2023-03-08T07:56:27;5.20;98.60
36586;DHT22;22591;48.314;11.562;2023-03-08T07:58:55;5.30;98.80
36586;DHT22;22591;48.314;11.562;2023-03-08T08:01:21;5.40;98.40
36586;DHT22;22591;48.314;11.562;2023-03-08T08:03:46;5.40;98.40
36586;DHT22;22591;48.314;11.562;2023-03-08T08:06:12;5.50;98.10
36586;DHT22;22591;48.314;11.562;2023-03-08T08:08:38;5.50;98.20
36586;DHT22;22591;48.314;11.562;2023-03-08T08:11:12;5.60;98.20
36586;DHT22;22591;48.314;11.562;2023-03-08T08:13:38;5.90;98.10
36586;DHT22;22591;48.314;11.562;2023-03-08T08:16:04;6.10;97.50
36586;DHT22;22591;48.314;11.562;2023-03-08T08:18:32;6.20;97.10
36586;DHT22;22591;48.314;11.562;2023-03-08T08:21:06;6.30;96.70
36586;DHT22;22591;48.314;11.562;2023-03-08T08:23:32;6.50;96.60
36586;DHT22;22591;48.314;11.562;2023-03-08T08:25:59;6.80;97.20
36586;DHT22;22591;48.314;11.562;2023-03-08T08:28:25;7.10;97.00
36586;DHT22;22591;48.314;11.562;2023-03-08T08:31:18;7.20;96.70
36586;DHT22;22591;48.314;11.562;2023-03-08T08:33:44;7.20;96.70
36586;DHT22;22591;48.314;11.562;2023-03-08T08:36:12;7.10;97.00
36586;DHT22;22591;48.314;11.562;2023-03-08T08:38:38;7.20;97.00
36586;DHT22;22591;48.314;11.562;2023-03-08T08:41:06;7.20;96.70
36586;DHT22;22591;48.314;11.562;2023-03-08T08:43:33;7.00;96.60
36586;DHT22;22591;48.314;11.562;2023-03-08T08:45:59;6.70;96.60
36586;DHT22;22591;48.314;11.562;2023-03-08T08:48:25;6.60;96.50
36586;DHT22;22591;48.314;11.562;2023-03-08T08:50:52;6.40;96.70
36586;DHT22;22591;48.314;11.562;2023-03-08T08:53:18;6.50;96.80
36586;DHT22;22591;48.314;11.562;2023-03-08T08:55:43;6.70;96.60
36586;DHT22;22591;48.314;11.562;2023-03-08T08:58:09;6.70;96.60
36586;DHT22;22591;48.314;11.562;2023-03-08T09:00:35;6.70;96.60
36586;DHT22;22591;48.314;11.562;2023-03-08T09:03:02;6.80;96.10
36586;DHT22;22591;48.314;11.562;2023-03-08T09:05:28;7.00;96.50
36586;DHT22;22591;48.314;11.562;2023-03-08T09:07:55;7.30;96.10
36586;DHT22;22591;48.314;11.562;2023-03-08T09:10:23;7.50;96.10
36586;DHT22;22591;48.314;11.562;2023-03-08T09:12:49;7.60;95.90
36586;DHT22;22591;48.314;11.562;2023-03-08T09:15:15;7.50;95.30
36586;DHT22;22591;48.314;11.562;2023-03-08T09:17:40;7.40;95.40
36586;DHT22;22591;48.314;11.562;2023-03-08T09:20:06;7.10;95.80
36586;DHT22;22591;48.314;11.562;2023-03-08T09:22:36;7.20;96.10
36586;DHT22;22591;48.314;11.562;2023-03-08T09:25:03;7.20;95.60
36586;DHT22;22591;48.314;11.562;2023-03-08T09:27:28;7.00;96.30
36586;DHT22;22591;48.314;11.562;2023-03-08T09:29:54;6.80;96.30
36586;DHT22;22591;48.314;11.562;2023-03-08T09:32:19;6.70;96.90
36586;DHT22;22591;48.314;11.562;2023-03-08T09:34:45;6.70;96.30
36586;DHT22;22591;48.314;11.562;2023-03-08T09:37:11;6.60;96.50
36586;DHT22;22591;48.314;11.562;2023-03-08T09:39:37;6.50;96.30
36586;DHT22;22591;48.314;11.562;2023-03-08T09:42:15;6.60;96.20
36586;DHT22;22591;48.314;11.562;2023-03-08T09:47:43;6.50;97.20
36586;DHT22;22591;48.314;11.562;2023-03-08T09:57:50;6.80;98.00
36586;DHT22;22591;48.314;11.562;2023-03-08T10:00:31;7.20;97.70
36586;DHT22;22591;48.314;11.562;2023-03-08T10:03:24;7.40;96.00
36586;DHT22;22591;48.314;11.562;2023-03-08T10:09:00;7.70;96.00
36586;DHT22;22591;48.314;11.562;2023-03-08T10:11:47;7.60;95.90
36586;DHT22;22591;48.314;11.562;2023-03-08T10:14:20;7.50;95.80
36586;DHT22;22591;48.314;11.562;2023-03-08T10:16:53;7.30;96.30
36586;DHT22;22591;48.314;11.562;2023-03-08T10:19:32;7.30;96.60
36586;DHT22;22591;48.314;11.562;2023-03-08T10:22:06;7.20;95.80
36586;DHT22;22591;48.314;11.562;2023-03-08T10:24:48;7.20;96.90
36586;DHT22;22591;48.314;11.562;2023-03-08T10:27:20;7.20;97.00
36586;DHT22;22591;48.314;11.562;2023-03-08T10:29:51;7.20;96.90
36586;DHT22;22591;48.314;11.562;2023-03-08T10:32:17;7.40;97.40
36586;DHT22;22591;48.314;11.562;2023-03-08T10:34:43;7.40;97.40
36586;DHT22;22591;48.314;11.562;2023-03-08T10:37:09;7.30;97.80
36586;DHT22;22591;48.314;11.562;2023-03-08T10:39:36;7.20;97.80
36586;DHT22;22591;48.314;11.562;2023-03-08T10:42:12;7.10;98.50
36586;DHT22;22591;48.314;11.562;2023-03-08T10:44:46;7.20;98.80
36586;DHT22;22591;48.314;11.562;2023-03-08T10:49:44;7.30;99.80
36586;DHT22;22591;48.314;11.562;2023-03-08T10:52:22;7.40;99.90
36586;DHT22;22591;48.314;11.562;2023-03-08T10:55:04;7.60;99.90
36586;DHT22;22591;48.314;11.562;2023-03-08T10:57:30;7.50;99.90
36586;DHT22;22591;48.314;11.562;2023-03-08T11:00:00;7.30;99.90
36586;DHT22;22591;48.314;11.562;2023-03-08T11:02:26;7.00;99.90
36586;DHT22;22591;48.314;11.562;2023-03-08T11:04:58;6.90;99.90
36586;DHT22;22591;48.314;11.562;2023-03-08T11:07:29;6.90;99.90
36586;DHT22;22591;48.314;11.562;2023-03-08T11:12:36;7.10;99.90
36586;DHT22;22591;48.314;11.562;2023-03-08T11:15:14;7.10;99.90
36586;DHT22;22591;48.314;11.562;2023-03-08T11:17:51;7.20;99.90
36586;DHT22;22591;48.314;11.562;2023-03-08T11:20:25;7.10;99.90
36586;DHT22;22591;48.314;11.562;2023-03-08T11:23:05;7.10;99.90
36586;DHT22;22591;48.314;11.562;2023-03-08T11:25:51;7.20;99.90
36586;DHT22;22591;48.314;11.562;2023-03-08T11:31:15;7.40;99.90
36586;DHT22;22591;48.314;11.562;2023-03-08T11:36:23;7.40;99.90
36586;DHT22;22591;48.314;11.562;2023-03-08T11:39:16;7.40;99.90
36586;DHT22;22591;48.314;11.562;2023-03-08T11:58:14;7.80;99.90
36586;DHT22;22591;48.314;11.562;2023-03-08T12:00:45;7.80;99.90
36586;DHT22;22591;48.314;11.562;2023-03-08T12:03:17;7.80;99.90
36586;DHT22;22591;48.314;11.562;2023-03-08T12:05:57;7.80;99.90
36586;DHT22;22591;48.314;11.562;2023-03-08T12:08:30;7.90;99.90
36586;DHT22;22591;48.314;11.562;2023-03-08T12:11:02;8.00;99.90
36586;DHT22;22591;48.314;11.562;2023-03-08T12:13:49;8.20;99.90
36586;DHT22;22591;48.314;11.562;2023-03-08T12:16:34;8.40;99.90
36586;DHT22;22591;48.314;11.562;2023-03-08T12:19:30;8.70;99.90
36586;DHT22;22591;48.314;11.562;2023-03-08T12:22:03;9.30;99.90
36586;DHT22;22591;48.314;11.562;2023-03-08T12:24:53;9.80;99.90
36586;DHT22;22591;48.314;11.562;2023-03-08T12:27:25;10.30;99.90
36586;DHT22;22591;48.314;11.562;2023-03-08T12:32:26;10.80;99.90
36586;DHT22;22591;48.314;11.562;2023-03-08T12:35:07;11.00;99.90
36586;DHT22;22591;48.314;11.562;2023-03-08T12:37:57;11.40;99.10
36586;DHT22;22591;48.314;11.562;2023-03-08T12:40:29;11.60;97.70
36586;DHT22;22591;48.314;11.562;2023-03-08T12:45:30;11.60;97.90
36586;DHT22;22591;48.314;11.562;2023-03-08T12:50:27;11.70;97.30
36586;DHT22;22591;48.314;11.562;2023-03-08T12:52:53;11.80;97.20
36586;DHT22;22591;48.314;11.562;2023-03-08T12:55:25;11.90;97.00
36586;DHT22;22591;48.314;11.562;2023-03-08T12:57:58;11.70;96.60
36586;DHT22;22591;48.314;11.562;2023-03-08T13:00:34;11.70;96.70
36586;DHT22;22591;48.314;11.562;2023-03-08T13:03:24;11.60;96.80
36586;DHT22;22591;48.314;11.562;2023-03-08T13:05:50;11.50;96.50
36586;DHT22;22591;48.314;11.562;2023-03-08T13:08:25;11.50;96.30
36586;DHT22;22591;48.314;11.562;2023-03-08T13:11:09;11.40;96.30
36586;DHT22;22591;48.314;11.562;2023-03-08T13:13:56;11.20;96.60
36586;DHT22;22591;48.314;11.562;2023-03-08T13:19:15;11.30;96.90
36586;DHT22;22591;48.314;11.562;2023-03-08T13:24:50;11.80;97.50
36586;DHT22;22591;48.314;11.562;2023-03-08T13:29:52;12.40;97.10
36586;DHT22;22591;48.314;11.562;2023-03-08T13:32:20;12.80;96.60
36586;DHT22;22591;48.314;11.562;2023-03-08T13:34:58;12.90;96.40
36586;DHT22;22591;48.314;11.562;2023-03-08T13:37:26;13.10;96.20
36586;DHT22;22591;48.314;11.562;2023-03-08T13:39:54;13.10;96.10
36586;DHT22;22591;48.314;11.562;2023-03-08T13:42:20;13.00;96.30
36586;DHT22;22591;48.314;11.562;2023-03-08T13:44:53;12.90;96.00
36586;DHT22;22591;48.314;11.562;2023-03-08T13:47:34;12.80;96.50
36586;DHT22;22591;48.314;11.562;2023-03-08T13:50:01;12.80;96.30
36586;DHT22;22591;48.314;11.562;2023-03-08T13:52:31;12.70;96.40
36586;DHT22;22591;48.314;11.562;2023-03-08T13:55:02;12.60;96.40
36586;DHT22;22591;48.314;11.562;2023-03-08T13:57:34;12.60;96.80
36586;DHT22;22591;48.314;11.562;2023-03-08T14:02:53;12.80;96.80
36586;DHT22;22591;48.314;11.562;2023-03-08T14:05:21;12.80;97.00
36586;DHT22;22591;48.314;11.562;2023-03-08T14:08:03;12.80;96.50
36586;DHT22;22591;48.314;11.562;2023-03-08T14:10:51;12.80;96.50
36586;DHT22;22591;48.314;11.562;2023-03-08T14:13:28;12.90;96.40
36586;DHT22;22591;48.314;11.562;2023-03-08T14:15:57;13.00;96.40
36586;DHT22;22591;48.314;11.562;2023-03-08T14:18:35;13.20;96.30
36586;DHT22;22591;48.314;11.562;2023-03-08T14:23:39;13.70;95.80
36586;DHT22;22591;48.314;11.562;2023-03-08T14:26:06;13.90;95.70
36586;DHT22;22591;48.314;11.562;2023-03-08T14:28:46;13.90;95.40
36586;DHT22;22591;48.314;11.562;2023-03-08T14:31:26;14.10;95.10
36586;DHT22;22591;48.314;11.562;2023-03-08T14:34:02;14.00;94.70
36586;DHT22;22591;48.314;11.562;2023-03-08T14:36:30;14.10;94.90
36586;DHT22;22591;48.314;11.562;2023-03-08T14:38:57;14.00;95.00
36586;DHT22;22591;48.314;11.562;2023-03-08T14:41:34;13.80;95.00
36586;DHT22;22591;48.314;11.562;2023-03-08T14:44:02;13.70;95.30
36586;DHT22;22591;48.314;11.562;2023-03-08T14:46:28;13.70;95.40
36586;DHT22;22591;48.314;11.562;2023-03-08T14:49:03;13.80;95.40
36586;DHT22;22591;48.314;11.562;2023-03-08T14:51:37;13.70;95.10
36586;DHT22;22591;48.314;11.562;2023-03-08T14:54:17;13.50;95.50
36586;DHT22;22591;48.314;11.562;2023-03-08T14:56:43;13.50;95.70
36586;DHT22;22591;48.314;11.562;2023-03-08T14:59:11;13.20;95.80
36586;DHT22;22591;48.314;11.562;2023-03-08T15:01:37;12.90;96.20
36586;DHT22;22591;48.314;11.562;2023-03-08T15:04:16;12.70;96.60
36586;DHT22;22591;48.314;11.562;2023-03-08T15:06:42;12.70;96.90
36586;DHT22;22591;48.314;11.562;2023-03-08T15:09:09;12.60;96.70
36586;DHT22;22591;48.314;11.562;2023-03-08T15:11:35;12.40;96.90
36586;DHT22;22591;48.314;11.562;2023-03-08T15:14:01;12.30;97.10
36586;DHT22;22591;48.314;11.562;2023-03-08T15:16:26;12.30;97.40
36586;DHT22;22591;48.314;11.562;2023-03-08T15:18:52;12.20;97.70
36586;DHT22;22591;48.314;11.562;2023-03-08T15:21:22;12.10;97.90
36586;DHT22;22591;48.314;11.562;2023-03-08T15:23:48;12.10;98.00
36586;DHT22;22591;48.314;11.562;2023-03-08T15:26:25;12.10;98.20
36586;DHT22;22591;48.314;11.562;2023-03-08T15:28:51;12.20;97.90
36586;DHT22;22591;48.314;11.562;2023-03-08T15:31:17;12.20;97.90
36586;DHT22;22591;48.314;11.562;2023-03-08T15:33:43;12.20;97.80
36586;DHT22;22591;48.314;11.562;2023-03-08T15:36:13;12.30;97.70
36586;DHT22;22591;48.314;11.562;2023-03-08T15:38:39;12.40;97.80
36586;DHT22;22591;48.314;11.562;2023-03-08T15:41:05;12.50;97.50
36586;DHT22;22591;48.314;11.562;2023-03-08T15:43:31;12.50;97.60
36586;DHT22;22591;48.314;11.562;2023-03-08T15:45:58;12.60;97.30
36586;DHT22;22591;48.314;11.562;2023-03-08T15:48:23;12.80;96.80
36586;DHT22;22591;48.314;11.562;2023-03-08T15:50:49;12.90;96.70
36586;DHT22;22591;48.314;11.562;2023-03-08T15:53:15;12.90;96.40
36586;DHT22;22591;48.314;11.562;2023-03-08T15:55:40;12.80;96.60
36586;DHT22;22591;48.314;11.562;2023-03-08T15:58:06;12.60;96.60
36586;DHT22;22591;48.314;11.562;2023-03-08T16:00:32;12.60;96.80
36586;DHT22;22591;48.314;11.562;2023-03-08T16:02:58;12.50;97.00
36586;DHT22;22591;48.314;11.562;2023-03-08T16:05:24;12.40;97.00
36586;DHT22;22591;48.314;11.562;2023-03-08T16:07:59;12.40;97.20
36586;DHT22;22591;48.314;11.562;2023-03-08T16:10:26;12.30;97.30
36586;DHT22;22591;48.314;11.562;2023-03-08T16:12:52;12.10;97.40
36586;DHT22;22591;48.314;11.562;2023-03-08T16:15:18;12.00;97.70
36586;DHT22;22591;48.314;11.562;2023-03-08T16:17:44;11.90;97.90
36586;DHT22;22591;48.314;11.562;2023-03-08T16:20:11;11.70;98.10
36586;DHT22;22591;48.314;11.562;2023-03-08T16:22:37;11.70;98.30
36586;DHT22;22591;48.314;11.562;2023-03-08T16:25:03;11.50;98.50
36586;DHT22;22591;48.314;11.562;2023-03-08T16:27:30;11.50;98.60
36586;DHT22;22591;48.314;11.562;2023-03-08T16:29:57;11.40;98.80
36586;DHT22;22591;48.314;11.562;2023-03-08T16:32:23;11.40;98.90
36586;DHT22;22591;48.314;11.562;2023-03-08T16:34:48;11.30;99.10
36586;DHT22;22591;48.314;11.562;2023-03-08T16:37:19;11.20;99.10
36586;DHT22;22591;48.314;11.562;2023-03-08T16:39:47;11.20;99.20
36586;DHT22;22591;48.314;11.562;2023-03-08T16:42:13;11.10;99.30
36586;DHT22;22591;48.314;11.562;2023-03-08T16:44:39;11.10;99.40